»·PEaware :: N7FJ KSAN-KPHX

N7FJ :: KSAN-KPHX

FLIGHT INFORMATION

Flight Status: Arrived
Operator: Privately registered:
United States
More flights under this callsign
Pilot: Zuqi C. (19949)
Aircraft: ECLIPSE 500
(EA50)
More flights by this aircraft type
Origin: KSAN San Diego Intl-Lindbergh
United States
Destination: KPHX Phoenix Sky Harbor Intl
United States
More flights between these airports :: More routes between these airports
Route: ZZOOO2 IPL J18 BZA HOGGZ HYDRR1
File this flight plan on PilotEdge
Remarks:
Altitude:
(Current/Filed)
23,000ft
Speed:
(Current/Filed)
350kts
Departed: 15-May-19 08:46 PM
Arrived: 15-May-19 09:46 PM
Distance/Time
Traveled:
263nm/1:00
Distance/Time
To Go:
Arrived

Flight Plot

Page will automatically refresh every two minutes.


Map Options




Map Legend


Flown Route
Filed Route
Departure Airport
Arrival Airport
Navaid (VOR, NDB)
Fix

Horizontal Profiles

Position Reports

Time Latitude Longitude Heading Altitude Ground
Speed
15-May-19 20:19 32.732321 -117.177543 194 20ft 0kts
15-May-19 20:20 32.732321 -117.177543 194 20ft 0kts
15-May-19 20:21 32.732321 -117.177543 194 20ft 0kts
15-May-19 20:22 32.732321 -117.177543 194 20ft 0kts
15-May-19 20:23 32.732321 -117.177543 194 20ft 0kts
15-May-19 20:24 32.732321 -117.177543 194 20ft 0kts
15-May-19 20:25 32.732321 -117.177543 194 20ft 0kts
15-May-19 20:26 32.732321 -117.177543 194 20ft 0kts
15-May-19 20:27 32.732321 -117.177543 194 20ft 0kts
15-May-19 20:28 32.732321 -117.177543 194 20ft 0kts
15-May-19 20:29 32.732321 -117.177543 194 20ft 0kts
15-May-19 20:30 32.732321 -117.177543 194 20ft 0kts
15-May-19 20:31 32.732321 -117.177543 194 20ft 0kts
15-May-19 20:32 32.732321 -117.177543 194 20ft 0kts
15-May-19 20:33 32.732321 -117.177543 194 20ft 0kts
15-May-19 20:34 32.732321 -117.177543 194 20ft 0kts
15-May-19 20:35 32.732321 -117.177543 194 20ft 0kts
15-May-19 20:36 32.732321 -117.177543 194 20ft 0kts
15-May-19 20:37 32.732321 -117.177543 194 20ft 0kts
15-May-19 20:38 32.732321 -117.177543 194 20ft 0kts
15-May-19 20:39 32.732321 -117.177543 194 20ft 0kts
15-May-19 20:40 32.732022 -117.177630 188 20ft 4kts
15-May-19 20:41 32.731289 -117.176368 104 22ft 4kts
15-May-19 20:42 32.730994 -117.175500 144 22ft 0kts
15-May-19 20:43 32.730994 -117.175500 144 22ft 0kts
15-May-19 20:44 32.730897 -117.175417 144 22ft 6kts
15-May-19 20:45 32.732975 -117.186420 288 150ft 123kts
15-May-19 20:46 32.745727 -117.236193 283 2609ft 181kts
15-May-19 20:47 32.737308 -117.280837 181 4928ft 172kts
15-May-19 20:48 32.690384 -117.264259 168 7398ft 181kts
15-May-19 20:49 32.640915 -117.249294 164 10044ft 195kts
15-May-19 20:50 32.625493 -117.184066 99 12780ft 228kts
15-May-19 20:51 32.618419 -117.101288 99 13961ft 276kts
15-May-19 20:52 32.610601 -117.012891 100 15351ft 271kts
15-May-19 20:53 32.602439 -116.922164 98 17670ft 283kts
15-May-19 20:55 32.619300 -116.827782 79 19727ft 300kts
15-May-19 20:56 32.634948 -116.727408 86 20946ft 334kts
15-May-19 20:57 32.645958 -116.613057 86 21971ft 361kts
15-May-19 20:58 32.657708 -116.491658 86 22971ft 379kts
15-May-19 20:59 32.669884 -116.364900 86 23000ft 375kts
15-May-19 21:00 32.681847 -116.238674 86 22889ft 389kts
15-May-19 21:01 32.693796 -116.111412 86 22808ft 390kts
15-May-19 21:02 32.705756 -115.982838 86 22809ft 391kts
15-May-19 21:03 32.717569 -115.854901 86 22810ft 391kts
15-May-19 21:04 32.729279 -115.726595 86 22811ft 391kts
15-May-19 21:05 32.740877 -115.598099 86 22835ft 391kts
15-May-19 21:06 32.750426 -115.469493 92 22867ft 389kts
15-May-19 21:07 32.753009 -115.340706 92 22903ft 389kts
15-May-19 21:08 32.755959 -115.212202 91 22898ft 389kts
15-May-19 21:09 32.758803 -115.084029 91 22900ft 385kts
15-May-19 21:10 32.761389 -114.958290 92 22716ft 360kts
15-May-19 21:11 32.763515 -114.849931 92 22803ft 341kts
15-May-19 21:12 32.765757 -114.731615 92 22810ft 372kts
15-May-19 21:13 32.768034 -114.606767 92 22811ft 381kts
15-May-19 21:14 32.769846 -114.480879 92 22812ft 381kts
15-May-19 21:15 32.771522 -114.355166 92 22812ft 381kts
15-May-19 21:15 32.772816 -114.251166 92 22807ft 381kts
15-May-19 21:17 32.774492 -114.104002 92 22808ft 381kts
15-May-19 21:18 32.785079 -113.978718 85 22809ft 383kts
15-May-19 21:19 32.798660 -113.853133 85 22810ft 383kts
15-May-19 21:20 32.812299 -113.727384 85 22813ft 384kts
15-May-19 21:20 32.854358 -113.636685 47 22824ft 390kts
15-May-19 21:22 32.938218 -113.524631 48 22394ft 387kts
15-May-19 21:22 32.997479 -113.444779 48 22091ft 386kts
15-May-19 21:23 33.068614 -113.348668 50 21634ft 386kts
15-May-19 21:24 33.138907 -113.253611 51 20724ft 377kts
15-May-19 21:25 33.207459 -113.160585 51 19800ft 370kts
15-May-19 21:27 33.274938 -113.048008 91 18702ft 344kts
15-May-19 21:27 33.277290 -112.953459 93 17945ft 339kts
15-May-19 21:28 33.279980 -112.841414 91 17035ft 335kts
15-May-19 21:29 33.289214 -112.730660 86 16061ft 331kts
15-May-19 21:30 33.298981 -112.625410 86 14951ft 312kts
15-May-19 21:31 33.308486 -112.522784 86 13865ft 306kts
15-May-19 21:32 33.317984 -112.419408 86 12963ft 314kts
15-May-19 21:33 33.327403 -112.316435 86 12032ft 302kts
15-May-19 21:34 33.335974 -112.222563 86 10909ft 257kts
15-May-19 21:35 33.343665 -112.135882 84 9802ft 263kts
15-May-19 21:36 33.347111 -112.050910 91 8119ft 245kts
15-May-19 21:37 33.346109 -111.971149 91 6307ft 229kts
15-May-19 21:38 33.347184 -111.898242 88 4531ft 210kts
15-May-19 21:39 33.378065 -111.859090 350 3325ft 187kts
15-May-19 21:40 33.418707 -111.872123 309 3200ft 118kts
15-May-19 21:41 33.428619 -111.904497 272 2863ft 105kts
15-May-19 21:42 33.428813 -111.939622 271 2254ft 108kts
15-May-19 21:43 33.428892 -111.973365 267 1618ft 97kts
15-May-19 21:44 33.428846 -112.003502 269 1129ft 88kts
15-May-19 21:45 33.428661 -112.016494 209 1115ft 6kts
15-May-19 21:46 33.427771 -112.017473 271 1115ft 4kts
15-May-19 21:47 33.427753 -112.020879 259 1115ft 5kts
15-May-19 21:48 33.425815 -112.021542 93 1114ft 7kts
15-May-19 21:49 33.425810 -112.021410 91 1114ft 0kts
15-May-19 21:50 33.425810 -112.021410 91 1114ft 0kts
15-May-19 21:51 33.425810 -112.021410 91 1114ft 0kts
15-May-19 21:52 33.425810 -112.021410 91 1114ft 0kts
15-May-19 21:53 33.425810 -112.021410 91 1114ft 0kts
15-May-19 21:54 33.425810 -112.021410 91 1114ft 0kts
15-May-19 21:55 33.425810 -112.021410 91 1114ft 0kts
15-May-19 21:56 33.425810 -112.021410 91 1114ft 0kts

Navigation Log

Ident Type
Flight plan parsing failed, navigation log unavailable